createdAt,value
2023-05-08T00:01:33.818Z,8.73
2023-05-08T00:04:03.287Z,8.88
2023-05-08T00:06:33.828Z,9.20
2023-05-08T00:09:04.579Z,8.95
2023-05-08T00:11:31.580Z,9.73
2023-05-08T00:14:00.137Z,9.45
2023-05-08T00:16:30.430Z,10.25
2023-05-08T00:19:01.887Z,9.70
2023-05-08T00:21:30.194Z,9.30
2023-05-08T00:23:57.987Z,8.02
2023-05-08T00:26:28.044Z,9.88
2023-05-08T00:29:05.540Z,9.55
2023-05-08T00:31:34.985Z,9.43
2023-05-08T00:34:03.328Z,8.85
2023-05-08T00:36:34.650Z,9.60
2023-05-08T00:39:03.022Z,9.43
2023-05-08T00:41:35.022Z,9.15
2023-05-08T00:44:03.136Z,9.32
2023-05-08T00:46:34.901Z,9.75
2023-05-08T00:49:04.602Z,9.55
2023-05-08T00:51:36.902Z,10.27
2023-05-08T00:54:05.442Z,9.30
2023-05-08T00:56:46.371Z,9.55
2023-05-08T00:59:18.952Z,9.00
2023-05-08T01:01:48.788Z,9.57
2023-05-08T01:04:20.315Z,9.45
2023-05-08T01:06:47.663Z,8.98
2023-05-08T01:09:14.848Z,9.73
2023-05-08T01:12:07.277Z,10.30
2023-05-08T01:14:58.463Z,9.77
2023-05-08T01:18:02.105Z,9.57
2023-05-08T01:20:46.910Z,9.57
2023-05-08T01:24:10.123Z,9.07
2023-05-08T01:26:57.818Z,8.82
2023-05-08T01:30:04.066Z,9.30
2023-05-08T01:32:36.702Z,9.25
2023-05-08T01:35:28.520Z,9.40
2023-05-08T01:38:13.357Z,9.20
2023-05-08T01:40:54.310Z,9.70
2023-05-08T01:46:19.177Z,9.27
2023-05-08T01:49:08.315Z,9.23
2023-05-08T01:51:47.645Z,9.73
2023-05-08T01:54:22.988Z,9.52
2023-05-08T01:56:52.840Z,10.15
2023-05-08T01:59:24.795Z,9.38
2023-05-08T02:01:57.172Z,9.23
2023-05-08T02:04:27.469Z,8.85
2023-05-08T02:06:59.254Z,9.02
2023-05-08T02:09:27.323Z,9.40
2023-05-08T02:11:55.868Z,9.20
2023-05-08T02:14:25.936Z,9.80
2023-05-08T02:16:56.162Z,10.10
2023-05-08T02:19:25.220Z,9.50
2023-05-08T02:21:53.452Z,9.43
2023-05-08T02:24:21.312Z,9.20
2023-05-08T02:26:52.015Z,9.52
2023-05-08T02:29:19.676Z,9.52
2023-05-08T02:31:47.925Z,9.88
2023-05-08T02:34:18.820Z,10.20
2023-05-08T02:36:46.146Z,9.57
2023-05-08T02:39:15.142Z,9.43
2023-05-08T02:41:44.722Z,9.73
2023-05-08T02:44:12.256Z,10.18
2023-05-08T02:46:57.368Z,9.73
2023-05-08T02:49:55.514Z,9.80
2023-05-08T02:52:30.601Z,10.20
2023-05-08T02:55:02.548Z,9.48
2023-05-08T02:57:54.107Z,9.88
2023-05-08T03:00:39.477Z,10.10
2023-05-08T03:03:20.443Z,9.85
2023-05-08T03:05:54.844Z,9.77
2023-05-08T03:08:35.423Z,9.95
2023-05-08T03:11:19.448Z,10.15
2023-05-08T03:13:48.296Z,9.93
2023-05-08T03:16:25.687Z,9.68
2023-05-08T03:19:01.218Z,10.43
2023-05-08T03:21:30.673Z,10.10
2023-05-08T03:24:03.036Z,10.35
2023-05-08T03:26:33.429Z,10.63
2023-05-08T03:29:00.938Z,10.70
2023-05-08T03:31:29.713Z,10.30
2023-05-08T03:33:56.997Z,10.00
2023-05-08T03:36:27.320Z,10.75
2023-05-08T03:38:58.360Z,10.73
2023-05-08T03:41:26.852Z,10.75
2023-05-08T03:43:56.073Z,10.35
2023-05-08T03:46:26.723Z,11.02
2023-05-08T03:48:55.068Z,9.95
2023-05-08T03:51:22.728Z,10.73
2023-05-08T03:53:49.331Z,9.85
2023-05-08T03:56:16.120Z,10.75
2023-05-08T03:59:00.672Z,10.48
2023-05-08T04:01:44.332Z,11.18
2023-05-08T04:04:21.211Z,10.65
2023-05-08T04:06:59.708Z,10.68
2023-05-08T04:09:27.346Z,10.73
2023-05-08T04:12:03.894Z,10.43
2023-05-08T04:14:57.146Z,10.32
2023-05-08T04:17:41.197Z,11.27
2023-05-08T04:20:18.298Z,10.57
2023-05-08T04:22:48.860Z,10.52
2023-05-08T04:25:17.485Z,11.43
2023-05-08T04:27:45.505Z,11.10
2023-05-08T04:30:13.315Z,11.55
2023-05-08T04:32:46.509Z,10.68
2023-05-08T04:35:14.401Z,11.27
2023-05-08T04:37:45.493Z,11.25
2023-05-08T04:40:38.747Z,10.90
2023-05-08T04:43:06.160Z,11.05
2023-05-08T04:45:32.921Z,11.00
2023-05-08T04:48:04.690Z,10.20
2023-05-08T04:53:22.271Z,11.23
2023-05-08T04:55:49.288Z,10.68
2023-05-08T04:58:16.710Z,10.50
2023-05-08T05:00:46.650Z,11.18
2023-05-08T05:03:13.486Z,11.00
2023-05-08T05:05:44.364Z,11.27
2023-05-08T05:08:14.055Z,10.60
2023-05-08T05:13:25.195Z,10.73
2023-05-08T05:15:56.849Z,10.85
2023-05-08T05:18:23.549Z,10.82
2023-05-08T05:20:50.835Z,11.02
2023-05-08T05:23:18.349Z,11.60
2023-05-08T05:25:45.190Z,11.00
2023-05-08T05:28:12.315Z,10.50
2023-05-08T05:30:41.942Z,11.10
2023-05-08T05:33:11.277Z,11.20
2023-05-08T05:35:37.927Z,10.82
2023-05-08T05:38:43.448Z,11.32
2023-05-08T05:41:10.395Z,11.43
2023-05-08T05:43:39.116Z,11.43
2023-05-08T05:46:08.115Z,11.88
2023-05-08T05:48:37.262Z,11.52
2023-05-08T05:51:05.992Z,12.30
2023-05-08T05:53:39.661Z,11.70
2023-05-08T05:56:09.071Z,11.98
2023-05-08T05:58:45.062Z,11.85
2023-05-08T06:01:22.357Z,12.82
2023-05-08T06:03:57.080Z,11.70
2023-05-08T06:09:14.985Z,12.48
2023-05-08T06:11:46.093Z,12.75
2023-05-08T06:14:12.742Z,12.52
2023-05-08T06:16:40.164Z,12.30
2023-05-08T06:19:12.849Z,11.73
2023-05-08T06:24:21.140Z,12.07
2023-05-08T06:26:48.396Z,12.00
2023-05-08T06:29:18.009Z,12.80
2023-05-08T06:31:45.741Z,11.83
2023-05-08T06:37:05.588Z,12.02
2023-05-08T06:39:37.386Z,11.57
2023-05-08T06:42:10.074Z,11.45
2023-05-08T06:44:38.928Z,11.77
2023-05-08T06:47:17.236Z,12.57
2023-05-08T06:49:48.469Z,11.70
2023-05-08T06:52:17.777Z,12.02
2023-05-08T06:57:36.656Z,11.98
2023-05-08T07:00:07.880Z,11.23
2023-05-08T07:02:48.111Z,11.40
2023-05-08T07:05:15.463Z,11.43
2023-05-08T07:07:48.827Z,11.35
2023-05-08T07:10:25.070Z,10.77
2023-05-08T07:12:59.482Z,11.60
2023-05-08T07:15:36.513Z,11.35
2023-05-08T07:18:04.209Z,11.10
2023-05-08T07:20:34.763Z,10.60
2023-05-08T07:23:17.518Z,11.43
2023-05-08T07:25:44.020Z,11.18
2023-05-08T07:28:13.658Z,11.00
2023-05-08T07:30:41.078Z,10.27
2023-05-08T07:35:59.523Z,11.20
2023-05-08T07:38:30.769Z,11.27
2023-05-08T07:43:26.290Z,11.50
2023-05-08T07:45:56.246Z,11.73
2023-05-08T07:48:24.295Z,11.40
2023-05-08T07:50:51.275Z,12.45
2023-05-08T07:53:21.761Z,12.00
2023-05-08T07:55:50.106Z,12.07
2023-05-08T07:58:37.198Z,11.75
2023-05-08T08:01:07.334Z,11.63
2023-05-08T08:03:38.437Z,11.68
2023-05-08T08:06:05.935Z,11.70
2023-05-08T08:11:15.674Z,11.23
2023-05-08T08:13:42.190Z,12.05
2023-05-08T08:18:51.151Z,11.27
2023-05-08T08:21:18.874Z,11.95
2023-05-08T08:26:17.278Z,11.85
2023-05-08T08:28:43.855Z,11.48
2023-05-08T08:31:15.057Z,12.25
2023-05-08T08:33:48.280Z,11.52
2023-05-08T08:39:00.864Z,11.35
2023-05-08T08:41:30.787Z,10.75
2023-05-08T08:43:59.443Z,11.05
2023-05-08T08:46:32.614Z,11.80
2023-05-08T08:49:06.400Z,11.95
2023-05-08T08:51:46.142Z,10.57
2023-05-08T08:54:18.521Z,10.35
2023-05-08T08:56:53.004Z,10.90
2023-05-08T09:05:33.637Z,10.38
2023-05-08T09:08:01.763Z,10.32
2023-05-08T09:10:39.378Z,11.07
2023-05-08T09:13:17.353Z,11.80
2023-05-08T09:15:49.865Z,11.20
2023-05-08T09:18:26.677Z,10.85
2023-05-08T09:20:53.254Z,11.65
2023-05-08T09:23:20.000Z,11.02
2023-05-08T09:28:30.957Z,10.60
2023-05-08T09:31:03.414Z,10.55
2023-05-08T09:33:35.724Z,10.95
2023-05-08T09:36:29.486Z,11.10
2023-05-08T09:38:56.084Z,11.80
2023-05-08T09:41:25.312Z,12.07
2023-05-08T09:44:13.283Z,11.38
2023-05-08T09:46:40.617Z,12.15
2023-05-08T09:49:18.509Z,11.65
2023-05-08T09:52:15.083Z,12.32
2023-05-08T09:54:42.792Z,12.35
2023-05-08T09:57:17.587Z,12.13
2023-05-08T10:02:29.899Z,12.07
2023-05-08T10:04:58.072Z,12.07
2023-05-08T10:07:40.473Z,11.93
2023-05-08T10:10:07.563Z,11.35
2023-05-08T10:12:34.177Z,12.43
2023-05-08T10:15:02.376Z,13.02
2023-05-08T10:17:34.817Z,12.38
2023-05-08T10:20:10.801Z,12.90
2023-05-08T10:22:41.600Z,12.18
2023-05-08T10:25:12.779Z,11.98
2023-05-08T10:28:23.906Z,11.73
2023-05-08T10:30:50.851Z,12.07
2023-05-08T10:33:23.324Z,12.32
2023-05-08T10:38:38.491Z,11.90
2023-05-08T10:41:27.551Z,11.05
2023-05-08T10:44:00.578Z,11.35
2023-05-08T10:46:43.440Z,11.10
2023-05-08T10:49:23.389Z,11.65
2023-05-08T10:52:02.162Z,11.13
2023-05-08T10:54:40.087Z,10.48
2023-05-08T10:57:18.889Z,11.07
2023-05-08T10:59:47.314Z,11.40
2023-05-08T11:05:24.091Z,10.75
2023-05-08T11:08:01.305Z,10.02
2023-05-08T11:10:34.587Z,10.13
2023-05-08T11:13:12.800Z,10.00
2023-05-08T11:15:43.876Z,10.23
2023-05-08T11:18:17.506Z,10.15
2023-05-08T11:21:11.135Z,10.35
2023-05-08T11:23:38.893Z,11.38
2023-05-08T11:26:22.767Z,10.10
2023-05-08T11:28:56.724Z,10.68
2023-05-08T11:31:46.489Z,10.50
2023-05-08T11:34:45.780Z,10.77
2023-05-08T11:37:28.987Z,11.10
2023-05-08T11:40:38.748Z,10.90
2023-05-08T11:43:28.791Z,10.82
2023-05-08T11:46:11.127Z,10.88
2023-05-08T11:48:40.851Z,11.63
2023-05-08T11:53:50.051Z,11.15
2023-05-08T11:56:17.193Z,9.93
2023-05-08T11:58:51.824Z,10.10
2023-05-08T12:07:03.244Z,10.85
2023-05-08T12:09:37.422Z,10.98
2023-05-08T12:12:08.858Z,11.90
2023-05-08T12:14:35.862Z,10.50
2023-05-08T12:17:07.775Z,11.93
2023-05-08T12:19:34.554Z,11.00
2023-05-08T12:22:02.181Z,11.95
2023-05-08T12:24:31.428Z,11.35
2023-05-08T12:26:58.645Z,10.53
2023-05-08T12:29:26.740Z,11.40
2023-05-08T12:31:55.931Z,12.20
2023-05-08T12:37:05.669Z,12.15
2023-05-08T12:39:42.954Z,12.68
2023-05-08T12:42:12.965Z,11.23
2023-05-08T12:44:40.241Z,11.48
2023-05-08T12:47:14.032Z,11.57
2023-05-08T12:49:52.326Z,12.23
2023-05-08T12:52:22.140Z,12.65
2023-05-08T12:54:50.506Z,12.10
2023-05-08T12:57:24.923Z,11.23
2023-05-08T13:00:05.105Z,12.55
2023-05-08T13:02:39.260Z,13.18
2023-05-08T13:05:14.154Z,11.95
2023-05-08T13:07:43.295Z,11.75
2023-05-08T13:10:48.396Z,11.20
2023-05-08T13:18:54.012Z,12.23
2023-05-08T13:24:10.870Z,10.98
2023-05-08T13:26:37.630Z,10.70
2023-05-08T13:29:09.256Z,9.95
2023-05-08T13:31:39.074Z,10.57
2023-05-08T13:34:07.835Z,11.05
2023-05-08T13:36:58.890Z,10.25
2023-05-08T13:39:44.686Z,9.75
2023-05-08T13:42:12.299Z,10.77
2023-05-08T13:44:40.979Z,10.30
2023-05-08T13:47:07.985Z,10.77
2023-05-08T13:49:37.728Z,10.20
2023-05-08T13:52:04.858Z,10.55
2023-05-08T13:54:33.563Z,10.98
2023-05-08T13:57:01.224Z,10.10
2023-05-08T13:59:40.889Z,10.15
2023-05-08T14:02:13.188Z,10.07
2023-05-08T14:04:41.352Z,9.93
2023-05-08T14:07:11.598Z,9.52
2023-05-08T14:09:42.497Z,9.88
2023-05-08T14:12:10.798Z,8.20
2023-05-08T14:14:40.890Z,9.50
2023-05-08T14:17:16.628Z,7.70
2023-05-08T14:19:49.504Z,9.73
2023-05-08T14:22:18.513Z,9.07
2023-05-08T14:25:03.074Z,9.35
2023-05-08T14:27:34.560Z,8.20
2023-05-08T14:30:08.899Z,9.48
2023-05-08T14:35:40.241Z,8.65
2023-05-08T14:38:19.273Z,8.50
2023-05-08T14:47:21.001Z,8.18
2023-05-08T14:49:50.170Z,8.32
2023-05-08T14:52:16.871Z,8.98
2023-05-08T14:57:37.155Z,8.73
2023-05-08T15:00:04.579Z,7.70
2023-05-08T15:02:32.492Z,7.85
2023-05-08T15:05:06.146Z,7.97
2023-05-08T15:07:36.735Z,8.25
2023-05-08T15:10:04.637Z,8.55
2023-05-08T15:12:32.732Z,8.15
2023-05-08T15:15:02.591Z,7.78
2023-05-08T15:17:36.950Z,7.70
2023-05-08T15:20:05.059Z,7.50
2023-05-08T15:25:25.065Z,6.93
2023-05-08T15:27:55.931Z,7.05
2023-05-08T15:33:06.924Z,6.38
2023-05-08T15:35:39.027Z,7.25
2023-05-08T15:38:09.596Z,6.55
2023-05-08T15:40:36.402Z,6.93
2023-05-08T15:43:04.219Z,6.63
2023-05-08T15:59:36.719Z,8.05
2023-05-08T16:02:14.888Z,7.82
2023-05-08T16:04:50.025Z,8.00
2023-05-08T16:07:18.323Z,8.80
2023-05-08T16:09:49.233Z,9.05
2023-05-08T16:12:17.654Z,8.13
2023-05-08T16:14:45.900Z,8.43
2023-05-08T16:17:18.449Z,8.90
2023-05-08T16:19:53.195Z,8.40
2023-05-08T16:22:20.023Z,8.70
2023-05-08T16:25:00.039Z,7.97
2023-05-08T16:27:34.820Z,8.73
2023-05-08T16:30:07.937Z,8.25
2023-05-08T16:35:18.491Z,8.15
2023-05-08T16:37:46.761Z,8.38
2023-05-08T16:40:16.389Z,8.88
2023-05-08T16:42:45.218Z,10.15
2023-05-08T16:45:16.201Z,9.00
2023-05-08T16:47:46.738Z,8.82
2023-05-08T16:50:13.860Z,9.10
2023-05-08T16:52:43.733Z,8.65
2023-05-08T16:55:13.558Z,8.80
2023-05-08T16:57:51.362Z,9.40
2023-05-08T17:00:33.735Z,9.85
2023-05-08T17:03:14.708Z,11.50
2023-05-08T17:08:53.037Z,10.00
2023-05-08T17:11:43.236Z,10.73
2023-05-08T17:14:19.503Z,10.82
2023-05-08T17:16:57.821Z,10.57
2023-05-08T17:22:50.179Z,10.27
2023-05-08T17:25:20.490Z,10.32
2023-05-08T17:27:50.733Z,11.27
2023-05-08T17:30:25.230Z,9.73
2023-05-08T17:32:53.212Z,10.05
2023-05-08T17:35:33.778Z,10.00
2023-05-08T17:38:01.123Z,10.20
2023-05-08T17:40:32.638Z,9.95
2023-05-08T17:43:03.934Z,10.18
2023-05-08T17:45:35.167Z,10.38
2023-05-08T17:48:09.226Z,10.35
2023-05-08T17:50:40.928Z,10.60
2023-05-08T17:53:15.760Z,11.27
2023-05-08T17:55:54.990Z,11.02
2023-05-08T18:01:43.702Z,10.43
2023-05-08T18:04:40.934Z,11.02
2023-05-08T18:07:12.990Z,10.32
2023-05-08T18:15:17.467Z,10.32
2023-05-08T18:17:55.347Z,11.60
2023-05-08T18:20:33.146Z,12.35
2023-05-08T18:29:17.605Z,11.23
2023-05-08T18:35:50.301Z,11.35
2023-05-08T18:38:29.017Z,11.77
2023-05-08T18:41:01.183Z,11.63
2023-05-08T18:43:33.627Z,11.38
2023-05-08T18:46:14.805Z,11.15
2023-05-08T18:51:35.531Z,11.00
2023-05-08T18:54:35.961Z,12.53
2023-05-08T19:05:20.508Z,11.57
2023-05-08T19:07:47.981Z,12.80
2023-05-08T19:13:05.927Z,12.98
2023-05-08T19:15:34.396Z,12.95
2023-05-08T19:18:04.107Z,12.80
2023-05-08T19:20:31.211Z,11.70
2023-05-08T19:23:02.247Z,12.23
2023-05-08T19:25:37.256Z,13.05
2023-05-08T19:31:02.912Z,12.25
2023-05-08T19:33:49.507Z,12.70
2023-05-08T20:35:02.094Z,15.13
2023-05-08T20:44:06.743Z,14.35
2023-05-08T20:46:37.827Z,14.80
2023-05-08T20:51:47.830Z,14.90
2023-05-08T20:57:07.233Z,14.60
2023-05-08T20:59:41.839Z,15.82
2023-05-08T21:02:09.177Z,14.70
2023-05-08T21:04:38.992Z,14.75
2023-05-08T21:07:07.368Z,15.13
2023-05-08T21:09:34.200Z,14.45
2023-05-08T21:12:02.297Z,15.45
2023-05-08T21:14:40.841Z,14.75
2023-05-08T21:17:10.581Z,15.70
2023-05-08T21:22:24.254Z,15.43
2023-05-08T21:24:52.093Z,15.98
2023-05-08T21:27:31.284Z,15.88
2023-05-08T21:29:59.921Z,13.52
2023-05-08T21:32:37.274Z,14.63
2023-05-08T21:35:07.656Z,14.05
2023-05-08T21:37:35.230Z,13.85
2023-05-08T21:40:06.781Z,16.02
2023-05-08T21:42:33.711Z,13.88
2023-05-08T21:45:08.922Z,14.63
2023-05-08T21:47:41.439Z,15.20
2023-05-08T21:50:09.284Z,15.85
2023-05-08T21:55:32.161Z,14.60
2023-05-08T21:58:13.942Z,15.07
2023-05-08T22:00:48.505Z,14.25
2023-05-08T22:03:16.785Z,14.48
2023-05-08T22:05:44.977Z,13.70
2023-05-08T22:08:18.268Z,15.88
2023-05-08T22:10:46.766Z,14.95
2023-05-08T22:13:13.709Z,14.57
2023-05-08T22:15:41.626Z,14.30
2023-05-08T22:18:08.838Z,16.40
2023-05-08T22:20:39.269Z,16.00
2023-05-08T22:23:06.941Z,15.85
2023-05-08T22:25:37.577Z,17.85
2023-05-08T22:28:06.634Z,15.82
2023-05-08T22:30:33.966Z,15.57
2023-05-08T22:33:01.490Z,16.13
2023-05-08T22:35:28.265Z,17.38
2023-05-08T22:37:55.793Z,16.38
2023-05-08T22:40:26.368Z,16.25
2023-05-08T22:43:01.742Z,16.05
2023-05-08T22:45:30.204Z,15.65
2023-05-08T22:47:57.225Z,15.70
2023-05-08T22:50:25.853Z,16.48
2023-05-08T22:52:53.400Z,16.55
2023-05-08T22:55:27.581Z,18.00
2023-05-08T22:58:04.521Z,16.95
2023-05-08T23:00:40.181Z,16.23
2023-05-08T23:03:08.923Z,16.27
2023-05-08T23:05:44.077Z,15.57
2023-05-08T23:08:15.839Z,15.52
2023-05-08T23:10:53.687Z,14.40
2023-05-08T23:13:33.548Z,16.30
2023-05-08T23:16:06.675Z,15.85
2023-05-08T23:18:44.996Z,16.25
2023-05-08T23:21:16.674Z,16.77
2023-05-08T23:23:53.302Z,16.88
2023-05-08T23:26:28.276Z,17.20
2023-05-08T23:29:06.143Z,16.42
2023-05-08T23:31:35.325Z,16.70
2023-05-08T23:37:00.448Z,17.45
2023-05-08T23:39:38.204Z,17.73
2023-05-08T23:42:11.461Z,16.42
2023-05-08T23:44:38.517Z,16.92
2023-05-08T23:47:05.530Z,17.73
2023-05-08T23:49:32.362Z,16.27
2023-05-08T23:51:59.128Z,15.82
2023-05-08T23:54:31.020Z,16.20
2023-05-08T23:56:58.657Z,15.05
2023-05-08T23:59:26.780Z,15.00
